Opasatika, Canada
Current Conditions -  °F | °C
As of 3:00 AM on Monday 26 Jan 2015 (Local Time) from CYYU Reporting Station
Clear Clear  
Wind Chill: -27°   Ceiling: Unl
Heat Index: -27°   Visibility: 15mi
Dew Point: -30°   Wind: 2mph
Humidity: 76%   Direction: 180°S
Pressure: 30.03"   Gusts: NA
Location:  49.53°N, 82.87°W
Report Text: CYYU 260800Z 18002KT 15SM SKC M27/M30 A3003 RMK SLP196
Loading
Personal Weather Stations






























Interactive Weather Map New forecast layout! Learn more

10-Day Weather Forecast

Advertisements
Track Severe Weather on mobile